M I D A S
Marine Information and Data Acquisition System
Tripno 838 of the Zeeleeuw from 2005-01-14 07:08:01 to 2005-01-14 14:49:40
Back to CruiseResearch ActivitiesStationsMapUnderway DataData graphs

EquipmentUnitsComment
TimeDGPSUTC
LatitudeDGPSDM.mWGS84
LongitudeDGPSDM.mWGS84
HeadingGyrodeg 
SOGDGPSknotsSpeed over ground
COGDGPSdegCourse over ground
DepthEcho soundermeters200 kHz
Missing or incorrect values are displayed as -999
Navigation data collected by the RV Zeeleeuw from 2005-01-14 07:09:25 to 2005-01-14 14:56:18
                                                                                    Next 1000 lines
Time Latitude Longitude Heading SOG COG Depth
2005-01-14 07:09:35 51°13.591 2°56.104 114.8 1 285 7.5
2005-01-14 07:09:41 51°13.592 2°56.1 115.2 1.2 291 7.6
2005-01-14 07:09:45 51°13.593 2°56.098 115.9 1.6 291 7.4
2005-01-14 07:09:51 51°13.594 2°56.093 116.5 1.7 292 -999
2005-01-14 07:09:55 51°13.595 2°56.09 117.1 2.1 294 -999
2005-01-14 07:10:01 51°13.597 2°56.083 118 2.3 295 -999
2005-01-14 07:10:06 51°13.599 2°56.078 118.7 2.6 296 -999
2005-01-14 07:10:11 51°13.601 2°56.073 119.3 2.8 297 -999
2005-01-14 07:10:16 51°13.602 2°56.067 119.7 2.9 297 -999
2005-01-14 07:10:21 51°13.605 2°56.06 120 3.1 297 -999
2005-01-14 07:10:26 51°13.607 2°56.054 120.2 3.3 297 -999
2005-01-14 07:10:31 51°13.609 2°56.047 120.3 3.4 298 -999
2005-01-14 07:10:35 51°13.611 2°56.041 120.2 3.6 298 -999
2005-01-14 07:10:41 51°13.614 2°56.032 120 3.6 297 -999
2005-01-14 07:10:46 51°13.616 2°56.025 119.9 3.8 296 -999
2005-01-14 07:10:51 51°13.618 2°56.017 119.8 3.8 296 -999
2005-01-14 07:10:56 51°13.621 2°56.01 119.9 3.8 296 -999
2005-01-14 07:11:01 51°13.623 2°56.002 120.2 3.9 296 -999
2005-01-14 07:11:06 51°13.625 2°55.994 120.8 3.9 296 -999
2005-01-14 07:11:11 51°13.628 2°55.987 121.9 3.9 297 -999
2005-01-14 07:11:16 51°13.631 2°55.979 123.3 4 298 -999
2005-01-14 07:11:21 51°13.633 2°55.971 124.3 4.2 300 -999
2005-01-14 07:11:26 51°13.636 2°55.963 124.5 4.2 300 -999
2005-01-14 07:11:31 51°13.639 2°55.955 124.1 4.2 300 -999
2005-01-14 07:11:36 51°13.642 2°55.947 123.6 4.3 299 -999
2005-01-14 07:11:41 51°13.645 2°55.938 123.6 4.4 299 -999
2005-01-14 07:11:46 51°13.648 2°55.93 124 4.4 300 -999
2005-01-14 07:11:51 51°13.652 2°55.921 124.6 4.5 300 -999
2005-01-14 07:11:55 51°13.654 2°55.914 125.5 4.5 300 -999
2005-01-14 07:12:01 51°13.658 2°55.904 126.6 4.5 303 -999
2005-01-14 07:12:06 51°13.662 2°55.896 127.8 4.5 304 -999
2005-01-14 07:12:11 51°13.665 2°55.888 129 4.5 305 -999
2005-01-14 07:12:15 51°13.668 2°55.882 129.9 4.5 306 -999
2005-01-14 07:12:21 51°13.673 2°55.872 130 4.5 307 -999
2005-01-14 07:12:26 51°13.677 2°55.864 130 4.5 307 -999
2005-01-14 07:12:31 51°13.681 2°55.856 129.9 4.6 307 -999
2005-01-14 07:12:35 51°13.684 2°55.85 129.6 4.6 307 -999
2005-01-14 07:12:41 51°13.688 2°55.84 129.1 4.6 307 -999
2005-01-14 07:12:46 51°13.692 2°55.831 128.9 4.6 306 -999
2005-01-14 07:12:51 51°13.696 2°55.823 128.8 4.7 305 -999
2005-01-14 07:12:56 51°13.7 2°55.814 129.3 4.7 305 -999
2005-01-14 07:13:01 51°13.704 2°55.806 130.1 4.8 306 -999
2005-01-14 07:13:06 51°13.708 2°55.797 131.3 4.8 307 -999
2005-01-14 07:13:11 51°13.712 2°55.789 132.7 4.9 307 -999
2005-01-14 07:13:15 51°13.715 2°55.782 134.3 4.9 309 -999
2005-01-14 07:13:21 51°13.721 2°55.772 136.3 5 310 -999
2005-01-14 07:13:26 51°13.726 2°55.764 138 5 312 -999
2005-01-14 07:13:31 51°13.731 2°55.755 139.6 5.1 313 -999
2005-01-14 07:13:36 51°13.735 2°55.747 141.2 5.1 315 -999
2005-01-14 07:13:41 51°13.741 2°55.739 142.8 5.2 316 -999
2005-01-14 07:13:46 51°13.746 2°55.732 144.6 5.2 318 -999
2005-01-14 07:13:51 51°13.752 2°55.724 146.7 5.3 320 -999
2005-01-14 07:13:56 51°13.758 2°55.717 148.6 5.4 321 -999
2005-01-14 07:14:01 51°13.764 2°55.71 150.7 5.5 324 -999
2005-01-14 07:14:06 51°13.77 2°55.703 153 5.4 326 -999
2005-01-14 07:14:11 51°13.776 2°55.697 155.4 5.2 329 -999
2005-01-14 07:14:16 51°13.782 2°55.692 157.7 4.8 331 -999
2005-01-14 07:14:21 51°13.787 2°55.688 159.5 4.5 333 9.9
2005-01-14 07:14:25 51°13.79 2°55.686 160.6 3.3 332 9.7
2005-01-14 07:14:31 51°13.793 2°55.683 161.1 2.4 334 9.6
2005-01-14 07:14:35 51°13.795 2°55.681 160.9 2.1 331 9.7
2005-01-14 07:14:41 51°13.799 2°55.679 160.4 2.3 333 9.7
2005-01-14 07:14:45 51°13.801 2°55.677 161.3 2.5 332 9.9
2005-01-14 07:14:50 51°13.803 2°55.675 163.2 2.5 332 10.1
2005-01-14 07:14:55 51°13.804 2°55.674 164.6 1.2 331 10.1
2005-01-14 07:15:01 51°13.804 2°55.674 164.2 0.3 318 10.1
2005-01-14 07:15:05 51°13.803 2°55.674 162.4 0.4 179 10.1
2005-01-14 07:15:10 51°13.803 2°55.674 159.7 0.4 178 10.1
2005-01-14 07:15:15 51°13.805 2°55.672 158.6 0.8 328 10.1
2005-01-14 07:15:21 51°13.807 2°55.67 158.6 1.2 328 10.2
2005-01-14 07:15:25 51°13.809 2°55.669 159.4 2 334 -999
2005-01-14 07:15:31 51°13.813 2°55.666 160.9 2.4 335 5
2005-01-14 07:15:36 51°13.817 2°55.663 162.3 3 338 -999
2005-01-14 07:15:41 51°13.822 2°55.66 164 3.6 341 -999
2005-01-14 07:15:46 51°13.827 2°55.658 166 3.9 342 -999
2005-01-14 07:15:51 51°13.833 2°55.655 167.1 4.2 343 -999
2005-01-14 07:15:55 51°13.838 2°55.653 168.4 4.5 345 -999
2005-01-14 07:16:01 51°13.846 2°55.65 169.8 4.7 345 -999
2005-01-14 07:16:06 51°13.853 2°55.647 171.1 5 347 -999
2005-01-14 07:16:11 51°13.86 2°55.645 172.7 5.2 347 -999
2005-01-14 07:16:15 51°13.866 2°55.643 174.4 5.3 349 -999
2005-01-14 07:16:21 51°13.875 2°55.641 176.1 5.5 350 -999
2005-01-14 07:16:26 51°13.883 2°55.639 178.2 5.6 352 -999
2005-01-14 07:16:31 51°13.891 2°55.638 180.1 5.6 354 -999
2005-01-14 07:16:36 51°13.899 2°55.638 183.4 5.7 356 -999
2005-01-14 07:16:42 51°13.909 2°55.638 185.8 5.7   -999
2005-01-14 07:16:46 51°13.915 2°55.639 189.7 5.6 3 -999
2005-01-14 07:16:51 51°13.923 2°55.64 193 5.5 5 -999
2005-01-14 07:16:56 51°13.93 2°55.642 195.8 5.5 8 -999
2005-01-14 07:17:01 51°13.938 2°55.645 200.1 5.4 11 -999
2005-01-14 07:17:06 51°13.945 2°55.649 203.7 5.2 16 -999
2005-01-14 07:17:11 51°13.951 2°55.653 207.6 5.1 20 -999
2005-01-14 07:17:15 51°13.956 2°55.656 211.2 4.8 22 -999
2005-01-14 07:17:21 51°13.963 2°55.661 214.1 4.5 27 -999
2005-01-14 07:17:26 51°13.968 2°55.665 216.9 4.1 27 -999
2005-01-14 07:17:31 51°13.971 2°55.669 219.1 3.6 30 5
2005-01-14 07:17:35 51°13.974 2°55.671 222 2.8 34 10.5
2005-01-14 07:17:41 51°13.976 2°55.673 225.5 2.1 26 10.3
2005-01-14 07:17:45 51°13.977 2°55.673 229.5 0.7 16 10.3
2005-01-14 07:17:49 51°13.977 2°55.672 235.9 0.5 322 10.6
2005-01-14 07:17:55 51°13.976 2°55.669 242.1 0.5 322 10.5
2005-01-14 07:18:01 51°13.976 2°55.664 250 1.7 265 10.6
2005-01-14 07:18:05 51°13.976 2°55.66 256.9 2.2 265 11
2005-01-14 07:18:11 51°13.976 2°55.652 265.3 2.4 266 11.2
2005-01-14 07:18:15 51°13.976 2°55.646 273.6 3.2 277 11.2
2005-01-14 07:18:21 51°13.978 2°55.636 281.8 3.8 285 11.4
2005-01-14 07:18:25 51°13.98 2°55.628 289.4 4.2 290 11
2005-01-14 07:18:29 51°13.982 2°55.62 295.4 4.6 292 11.4
2005-01-14 07:18:34 51°13.986 2°55.61 298.1 5.4 297 11.2
2005-01-14 07:18:41 51°13.992 2°55.594 299.8 5.6 297 11
2005-01-14 07:18:45 51°13.995 2°55.584 302.2 5.9 300 10.9
2005-01-14 07:18:50 51°14.001 2°55.572 304.8 6.5 304 10.9
2005-01-14 07:18:55 51°14.007 2°55.561 307.7 6.8 308 10.5
2005-01-14 07:19:01 51°14.015 2°55.546 311.1 7 309 10.1
2005-01-14 07:19:05 51°14.02 2°55.537 314.7 7.2 311 10
2005-01-14 07:19:10 51°14.028 2°55.525 317.9 7.4 314 9.9
2005-01-14 07:19:15 51°14.036 2°55.513 318.7 7.7 315 10
2005-01-14 07:19:21 51°14.046 2°55.499 320 7.9 317 9.9
2005-01-14 07:19:25 51°14.053 2°55.49 321.8 8.1 319 9.9
2005-01-14 07:19:31 51°14.064 2°55.477 325 8.1 321 9.8
2005-01-14 07:19:35 51°14.072 2°55.469 328.7 8.3 325 9.9
2005-01-14 07:19:41 51°14.084 2°55.456 330.9 8.5 327 9.8
2005-01-14 07:19:45 51°14.092 2°55.448 331.8 8.8 329 9.7
2005-01-14 07:19:50 51°14.103 2°55.438 333 8.8 329 9.8
2005-01-14 07:19:54 51°14.112 2°55.43 333.8 9 329 9.7
2005-01-14 07:20:01 51°14.127 2°55.415 334.1 9.1 330 9.7
2005-01-14 07:20:05 51°14.136 2°55.407 333.5 9.1 330 10.5
2005-01-14 07:20:11 51°14.149 2°55.394 333.2 9.3 329 10.5
2005-01-14 07:20:15 51°14.158 2°55.385 333.8 9.5 330 9.9
2005-01-14 07:20:21 51°14.172 2°55.372 333.8 9.5 329 10.5
2005-01-14 07:20:25 51°14.181 2°55.363 333 9.5 328 10.7
2005-01-14 07:20:30 51°14.192 2°55.351 331.6 9.5 327 10.8
2005-01-14 07:20:35 51°14.202 2°55.338 329 9.6 324 10.5
2005-01-14 07:20:41 51°14.215 2°55.322 327 9.7 322 10.3
2005-01-14 07:20:45 51°14.223 2°55.311 325.8 9.7 320 10.4
2005-01-14 07:20:49 51°14.231 2°55.299 323.7 9.8 318 10.4
2005-01-14 07:20:55 51°14.243 2°55.281 321.4 10 316 10.6
2005-01-14 07:21:01 51°14.255 2°55.263 319.7 10 315 10.5
2005-01-14 07:21:05 51°14.263 2°55.25 319.5 10.1 315 10.5
2005-01-14 07:21:10 51°14.272 2°55.233 318 10.1 314 10.5
2005-01-14 07:21:15 51°14.282 2°55.216 315.3 10.2 311 10.4
2005-01-14 07:21:21 51°14.293 2°55.195 314.2 10.3 311 10.3
2005-01-14 07:21:25 51°14.3 2°55.18 313.5 10.5 310 10.2
2005-01-14 07:21:31 51°14.311 2°55.158 313.5 10.5 310 10.1
2005-01-14 07:21:35 51°14.319 2°55.143 313.5 10.5 310 10.3
2005-01-14 07:21:41 51°14.331 2°55.12 313.8 11.1 310 10.3
2005-01-14 07:21:45 51°14.34 2°55.105 315.1 11.1 311 10.2
2005-01-14 07:21:51 51°14.352 2°55.083 317 11.3 313 10
2005-01-14 07:21:55 51°14.362 2°55.069 319.1 11.3 313 10.3
2005-01-14 07:22:01 51°14.375 2°55.047 319.8 11.3 313 10.4
2005-01-14 07:22:06 51°14.387 2°55.029 319.4 11.8 314 10.8
2005-01-14 07:22:11 51°14.398 2°55.01 319.4 11.9 314 10.7
2005-01-14 07:22:15 51°14.407 2°54.994 319.2 11.9 313 10.8
2005-01-14 07:22:21 51°14.42 2°54.97 318 12 312 10.7
2005-01-14 07:22:25 51°14.428 2°54.953 316.7 12.3 310 10.6
2005-01-14 07:22:31 51°14.441 2°54.927 315.5 12.2 309 10.7
2005-01-14 07:22:35 51°14.449 2°54.908 314 12.2 309 10.4
2005-01-14 07:22:41 51°14.462 2°54.883 314.4 12.4 307 10.4
2005-01-14 07:22:45 51°14.471 2°54.866 317.7 12.4 312 10.2
2005-01-14 07:22:49 51°14.48 2°54.851 320.9 12.4 315 10.1
2005-01-14 07:22:54 51°14.493 2°54.832 323.4 12.4 316 10.1
2005-01-14 07:23:01 51°14.511 2°54.807 325.3 12.3 318 9.9
2005-01-14 07:23:05 51°14.521 2°54.793 327.3 12.3 320 10
2005-01-14 07:23:10 51°14.535 2°54.776 328.7 12.3 321 9.8
2005-01-14 07:23:15 51°14.548 2°54.759 329.5 12.3 321 9.7
2005-01-14 07:23:21 51°14.565 2°54.738 330 12.5 322 9.8
2005-01-14 07:23:25 51°14.577 2°54.725 330.2 12.9 322 9.6
2005-01-14 07:23:30 51°14.591 2°54.707 330.2 12.9 322 9.4
2005-01-14 07:23:35 51°14.605 2°54.689 330 12.9 322 9.3
2005-01-14 07:23:41 51°14.622 2°54.668 329.6 13.1 322 9.3
2005-01-14 07:23:45 51°14.633 2°54.653 329.4 13.1 321 9.1
2005-01-14 07:23:50 51°14.648 2°54.635 329 13.3 322 9.3
2005-01-14 07:23:55 51°14.662 2°54.616 328.7 13.4 321 9.1
2005-01-14 07:24:01 51°14.679 2°54.594 328.3 13.4 321 9.3
2005-01-14 07:24:05 51°14.691 2°54.579 328.2 13.4 321 9.3
2005-01-14 07:24:11 51°14.709 2°54.556 328.1 13.4 321 9.4
2005-01-14 07:24:15 51°14.721 2°54.541 328.3 13.4 322 9.6
2005-01-14 07:24:21 51°14.738 2°54.52 328.9 13.6 322 9.4
2005-01-14 07:24:25 51°14.75 2°54.505 330 13.6 324 9.1
2005-01-14 07:24:29 51°14.763 2°54.492 331.3 13.6 324 9.3
2005-01-14 07:24:35 51°14.781 2°54.471 332.1 13.6 325 9.3
2005-01-14 07:24:41 51°14.8 2°54.45 332.4 13.5 325 9.2
2005-01-14 07:24:45 51°14.812 2°54.437 332.8 13.6 325 9.2
2005-01-14 07:24:51 51°14.831 2°54.417 333 13.6 326 9.2
2005-01-14 07:24:55 51°14.844 2°54.403 333 13.6 326 9.1
2005-01-14 07:25:01 51°14.863 2°54.383 333 13.5 325 8.9
2005-01-14 07:25:05 51°14.875 2°54.369 332.6 13.5 325 8.9
2005-01-14 07:25:10 51°14.891 2°54.352 332.4 13.6 325 8.8
2005-01-14 07:25:15 51°14.906 2°54.335 332.4 13.6 325 8.5
2005-01-14 07:25:21 51°14.925 2°54.315 332.4 13.5 325 8.3
2005-01-14 07:25:25 51°14.937 2°54.301 332.3 13.5 325 8.3
2005-01-14 07:25:31 51°14.954 2°54.281 332 13.4 325 8.2
2005-01-14 07:25:35 51°14.967 2°54.267 331.7 13.3 324 8
2005-01-14 07:25:41 51°14.985 2°54.246 331.4 13.3 324 7.9
2005-01-14 07:25:45 51°14.996 2°54.232 331.3 13.3 324 8
2005-01-14 07:25:50 51°15.012 2°54.215 331.1 13.3 324 8
2005-01-14 07:25:55 51°15.026 2°54.197 330.9 13.3 324 8.1
2005-01-14 07:26:01 51°15.044 2°54.176 330.7 13.3 323 8.2
2005-01-14 07:26:05 51°15.056 2°54.162 330.4 13.4 323 8.3
2005-01-14 07:26:10 51°15.072 2°54.144 330.3 13.5 324 8.3
2005-01-14 07:26:15 51°15.087 2°54.127 330.9 13.5 324 8.3
2005-01-14 07:26:21 51°15.105 2°54.106 331.6 13.6 325 8.4
2005-01-14 07:26:25 51°15.118 2°54.093 332.2 13.7 326 8.4
2005-01-14 07:26:31 51°15.137 2°54.073 332.7 13.6 326 8.5
2005-01-14 07:26:35 51°15.15 2°54.06 333.3 13.7 326 8.6
2005-01-14 07:26:41 51°15.169 2°54.04 333.3 13.7 326 8.7
2005-01-14 07:26:45 51°15.182 2°54.026 333.2 13.7 326 8.7
2005-01-14 07:26:49 51°15.194 2°54.012 332.7 13.7 326 8.7
2005-01-14 07:26:55 51°15.213 2°53.991 332.4 13.8 326 8.7
2005-01-14 07:27:01 51°15.232 2°53.97 331.9 13.8 325 8.7
2005-01-14 07:27:05 51°15.244 2°53.956 331.3 13.9 324 8.8
2005-01-14 07:27:10 51°15.26 2°53.938 330.8 13.9 324 8.9
2005-01-14 07:27:15 51°15.276 2°53.919 330.6 13.9 324 9
2005-01-14 07:27:21 51°15.294 2°53.898 330.5 13.8 324 9.1
2005-01-14 07:27:25 51°15.307 2°53.884 331 13.9 325 9.1
2005-01-14 07:27:30 51°15.324 2°53.868 332.6 13.9 326 9.1
2005-01-14 07:27:35 51°15.341 2°53.852 334.7 13.9 326 9.2
2005-01-14 07:27:41 51°15.361 2°53.834 336.3 13.9 330 9.3
2005-01-14 07:27:45 51°15.375 2°53.823 337.8 13.9 332 9.5
2005-01-14 07:27:50 51°15.392 2°53.809 339 13.9 332 9.4
2005-01-14 07:27:55 51°15.409 2°53.795 339.7 13.9 333 9.4
2005-01-14 07:28:01 51°15.43 2°53.778 339.9 13.9 332 9.6
2005-01-14 07:28:05 51°15.444 2°53.766 339.6 14 332 9.7
2005-01-14 07:28:11 51°15.464 2°53.748 339.1 14 331 9.8
2005-01-14 07:28:15 51°15.477 2°53.735 338.2 14 330 9.9
2005-01-14 07:28:21 51°15.498 2°53.716 337.1 13.9 329 9.9
2005-01-14 07:28:25 51°15.511 2°53.703 336.8 14 329 10
2005-01-14 07:28:30 51°15.527 2°53.688 336.7 14 329 10
2005-01-14 07:28:35 51°15.544 2°53.672 336.9 13.9 330 10.2
2005-01-14 07:28:41 51°15.564 2°53.653 337.4 14 329 10.2
2005-01-14 07:28:45 51°15.578 2°53.641 337.8 14 330 10.3
2005-01-14 07:28:49 51°15.591 2°53.629 338 13.9 330 10.3
2005-01-14 07:28:55 51°15.611 2°53.61 338.2 14 330 10.4
2005-01-14 07:29:01 51°15.632 2°53.592 337.9 14 330 10.4
2005-01-14 07:29:05 51°15.645 2°53.579 337.6 14 330 10.6
2005-01-14 07:29:09 51°15.658 2°53.567 337.5 14 329 10.6
2005-01-14 07:29:15 51°15.678 2°53.548 337.3 13.9 329 10.8
2005-01-14 07:29:21 51°15.698 2°53.529 337.1 13.9 330 10.7
2005-01-14 07:29:25 51°15.711 2°53.517 337.3 13.9 329 10.6
2005-01-14 07:29:31 51°15.732 2°53.498 337.2 13.8 329 10.7
2005-01-14 07:29:35 51°15.745 2°53.486 337.1 13.9 329 10.8
2005-01-14 07:29:41 51°15.765 2°53.466 337.1 13.9 330 10.8
2005-01-14 07:29:45 51°15.778 2°53.454 337.2 13.9 330 10.9
2005-01-14 07:29:50 51°15.795 2°53.439 337.4 13.9 330 10.8
2005-01-14 07:29:55 51°15.812 2°53.424 337.5 13.9 330 11
2005-01-14 07:30:01 51°15.831 2°53.406 337.6 13.8 330 11
2005-01-14 07:30:05 51°15.844 2°53.393 338 13.8 330 10.9
2005-01-14 07:30:11 51°15.865 2°53.375 338.1 13.8 330 11.1
2005-01-14 07:30:15 51°15.878 2°53.363 338 13.8 330 11.2
2005-01-14 07:30:21 51°15.898 2°53.345 338.1 13.8 330 11.1
2005-01-14 07:30:25 51°15.911 2°53.333 338.2 13.8 330 11.2
2005-01-14 07:30:31 51°15.932 2°53.315 338.4 13.8 330 11.3
2005-01-14 07:30:35 51°15.945 2°53.303 338.4 13.8 330 11.4
2005-01-14 07:30:41 51°15.965 2°53.284 338.3 13.8 330 11.4
2005-01-14 07:30:45 51°15.979 2°53.273 338.5 13.8 331 11.4
2005-01-14 07:30:49 51°15.992 2°53.261 338.9 13.9 331 11.4
2005-01-14 07:30:55 51°16.012 2°53.243 339.3 13.7 332 11.5
2005-01-14 07:31:01 51°16.033 2°53.226 339.6 13.8 331 11.4
2005-01-14 07:31:05 51°16.046 2°53.215 339.6 13.8 332 11.5
2005-01-14 07:31:09 51°16.06 2°53.204 339.9 13.8 332 11.5
2005-01-14 07:31:15 51°16.08 2°53.186 339.9 13.8 332 11.7
2005-01-14 07:31:21 51°16.1 2°53.169 339.6 13.7 332 11.7
2005-01-14 07:31:25 51°16.114 2°53.157 339.6 13.7 332 11.7
2005-01-14 07:31:30 51°16.131 2°53.144 340.4 13.8 332 11.7
2005-01-14 07:31:35 51°16.149 2°53.131 341.2 13.9 334 11.7
2005-01-14 07:31:41 51°16.17 2°53.116 342.1 13.8 335 11.7
2005-01-14 07:31:45 51°16.184 2°53.105 342.5 13.8 334 11.8
2005-01-14 07:31:50 51°16.201 2°53.093 342.9 13.8 335 11.9
2005-01-14 07:31:55 51°16.219 2°53.08 343.2 13.8 335 11.9
2005-01-14 07:32:01 51°16.24 2°53.065 343.3 13.8 335 11.8
2005-01-14 07:32:05 51°16.254 2°53.055 343.3 13.8 336 11.9
2005-01-14 07:32:11 51°16.275 2°53.039 343.2 13.8 335 12
2005-01-14 07:32:15 51°16.288 2°53.029 342.5 13.8 335 11.9
2005-01-14 07:32:21 51°16.309 2°53.013 342.5 13.8 335 12
2005-01-14 07:32:25 51°16.323 2°53.003 342.8 13.8 335 12
2005-01-14 07:32:30 51°16.34 2°52.991 343 13.8 335 12
2005-01-14 07:32:34 51°16.354 2°52.981 343.3 13.8 336 12
2005-01-14 07:32:41 51°16.379 2°52.967 345.4 13.7 339 12
2005-01-14 07:32:45 51°16.394 2°52.96 348.3 13.6 342 11.8
2005-01-14 07:32:49 51°16.408 2°52.954 350.6 13.6 345 11.7
2005-01-14 07:32:56 51°16.434 2°52.947 354.6 13.4 351 11.9
2005-01-14 07:33:01 51°16.452 2°52.945 358.2 13.5 350 11.7
2005-01-14 07:33:06 51°16.471 2°52.941 1 13.5 353 11.7
2005-01-14 07:33:10 51°16.486 2°52.94 2.1 13.4 355 11.7
2005-01-14 07:33:15 51°16.505 2°52.938 3.5 13.4 357 11.6
2005-01-14 07:33:21 51°16.527 2°52.936 4.3 13.4 357 11.3
2005-01-14 07:33:25 51°16.542 2°52.935 4.2 13.4 356 11.3
2005-01-14 07:33:29 51°16.557 2°52.933 4.1 13.5 356 11.2
2005-01-14 07:33:34 51°16.576 2°52.932 4 13.5 357 11.3
2005-01-14 07:33:41 51°16.602 2°52.932 4.6 13.5 357 11.1
2005-01-14 07:33:45 51°16.617 2°52.932 6.6 13.5 1 11
2005-01-14 07:33:50 51°16.636 2°52.934 8.1 13.4 2 11
2005-01-14 07:33:54 51°16.651 2°52.937 11.1 13.4 2 11
2005-01-14 07:34:00 51°16.673 2°52.942 14.5 13.2 8 10.9
2005-01-14 07:34:05 51°16.691 2°52.948 17.2 13.2 11 10.7
2005-01-14 07:34:11 51°16.712 2°52.956 19 13.2 11 10.7
2005-01-14 07:34:15 51°16.727 2°52.962 20.2 13.2 13 10.5
2005-01-14 07:34:21 51°16.748 2°52.971 20.9 13.2 14 10.4
2005-01-14 07:34:25 51°16.762 2°52.977 21.8 13.1 15 10.2
2005-01-14 07:34:31 51°16.784 2°52.986 22.2 13.2 15 10.1
2005-01-14 07:34:35 51°16.798 2°52.992 22.2 13.2 15 9.8
2005-01-14 07:34:41 51°16.819 2°53.001 22.2 13.2 15 9.4
2005-01-14 07:34:45 51°16.833 2°53.007 22.4 13.1 15 8.8
2005-01-14 07:34:51 51°16.853 2°53.016 22.2 13.1 15 8.4
2005-01-14 07:34:55 51°16.867 2°53.02 22.1 12.9 16 7.9
2005-01-14 07:35:01 51°16.886 2°53.029 21.7 12.7 15 7.9
2005-01-14 07:35:05 51°16.9 2°53.034 21.7 12.6 14 5.8
2005-01-14 07:35:11 51°16.92 2°53.043 22.1 12.5 16 5.5
2005-01-14 07:35:15 51°16.933 2°53.049 22.3 12.6 14 7.6
2005-01-14 07:35:21 51°16.954 2°53.058 22.9 12.6 17 7.5
2005-01-14 07:35:25 51°16.967 2°53.064 22.9 12.7 16 7.6
2005-01-14 07:35:31 51°16.988 2°53.071 22 12.7 16 7.7
2005-01-14 07:35:35 51°17.002 2°53.076 21.1 12.7 14 7.4
2005-01-14 07:35:41 51°17.023 2°53.083 19.6 12.8 10 7.5
2005-01-14 07:35:45 51°17.037 2°53.086 18.4 12.8 10 7.8
2005-01-14 07:35:50 51°17.054 2°53.09 16.9 12.8 8 7.7
2005-01-14 07:35:55 51°17.072 2°53.095 16.4 12.8 10 7.7
2005-01-14 07:36:01 51°17.093 2°53.1 15.9 12.9 8 7.9
2005-01-14 07:36:05 51°17.108 2°53.103 15.6 13 9 8.1
2005-01-14 07:36:10 51°17.126 2°53.109 16.1 13.1 9 8.1
2005-01-14 07:36:13 51°17.136 2°53.112 17.4 13.1 11 8.3
2005-01-14 07:36:21 51°17.165 2°53.122 18.6 13.2 12 8.3
2005-01-14 07:36:25 51°17.18 2°53.129 19.9 13.2 12 8.3
2005-01-14 07:36:30 51°17.198 2°53.136 20.8 13.2 12 8.2
2005-01-14 07:36:36 51°17.219 2°53.147 21.8 13.2 17 8.4
2005-01-14 07:36:41 51°17.236 2°53.159 23.9 13.2 18 8.3
2005-01-14 07:36:45 51°17.248 2°53.17 29.3 13 27 8.4
2005-01-14 07:36:50 51°17.263 2°53.186 34.5 13 30 8.3
2005-01-14 07:36:55 51°17.277 2°53.204 40 13 38 8.4
2005-01-14 07:37:01 51°17.293 2°53.226 44.2 13 42 8.3
2005-01-14 07:37:05 51°17.304 2°53.242 47.9 12.9 43 8.4
2005-01-14 07:37:11 51°17.319 2°53.266 49 12.9 43 8.4
2005-01-14 07:37:15 51°17.329 2°53.282 50.5 12.7 45 8.5
2005-01-14 07:37:21 51°17.343 2°53.306 51 12.7 45 8.4
2005-01-14 07:37:25 51°17.354 2°53.322 51.2 13 44 8.3
2005-01-14 07:37:30 51°17.368 2°53.341 49.6 13.1 44 8.4
2005-01-14 07:37:35 51°17.381 2°53.36 48 13 42 8.9
2005-01-14 07:37:41 51°17.398 2°53.382 47.6 13 41 8.3
2005-01-14 07:37:45 51°17.409 2°53.397 46.2 12.9 40 8.4
2005-01-14 07:37:49 51°17.42 2°53.411 45.8 13.1 39 8.5
2005-01-14 07:37:53 51°17.432 2°53.425 45 13.1 38 8.4
2005-01-14 07:38:01 51°17.454 2°53.454 44.8 13 40 8.7
2005-01-14 07:38:05 51°17.464 2°53.47 45.4 13 39 8.6
2005-01-14 07:38:10 51°17.477 2°53.49 47.9 12.9 44 8.5
2005-01-14 07:38:15 51°17.489 2°53.512 51.7 13 49 8.5
2005-01-14 07:38:20 51°17.5 2°53.535 55 13 50 8.4
2005-01-14 07:38:25 51°17.51 2°53.558 57.5 12.9 54 8.5
2005-01-14 07:38:31 51°17.522 2°53.587 60.2 12.9 56 8.5
2005-01-14 07:38:35 51°17.53 2°53.606 60.7 12.9 55 8.6
2005-01-14 07:38:41 51°17.541 2°53.634 61.5 12.8 56 8.5
2005-01-14 07:38:45 51°17.549 2°53.654 61.8 12.7 56 8.6
2005-01-14 07:38:51 51°17.562 2°53.682 61.6 12.9 56 8.5
2005-01-14 07:38:56 51°17.573 2°53.704 60.2 12.8 55 8.4
2005-01-14 07:39:01 51°17.583 2°53.727 60 12.8 55 8.5
2005-01-14 07:39:05 51°17.592 2°53.745 58.8 12.9 51 8.4
2005-01-14 07:39:11 51°17.605 2°53.772 57.5 12.9 53 8.4
2005-01-14 07:39:15 51°17.614 2°53.79 57.3 12.8 50 8.4
2005-01-14 07:39:21 51°17.628 2°53.816 56.6 12.8 52 8.4
2005-01-14 07:39:25 51°17.636 2°53.834 56.9 12.8 53 8.4
2005-01-14 07:39:30 51°17.647 2°53.857 57.1 12.9 51 8.4
2005-01-14 07:39:35 51°17.658 2°53.88 57.5 12.9 52 8.4
2005-01-14 07:39:41 51°17.671 2°53.907 58 12.9 53 8.3
2005-01-14 07:39:45 51°17.68 2°53.926 58.6 12.9 53 8.5
2005-01-14 07:39:51 51°17.692 2°53.953 59 12.9 53 8.5
2005-01-14 07:39:55 51°17.7 2°53.971 59.8 12.8 54 8.3
2005-01-14 07:40:01 51°17.712 2°54 60.3 12.8 56 8.3
2005-01-14 07:40:06 51°17.723 2°54.023 60.7 12.8 54 8.5
2005-01-14 07:40:11 51°17.733 2°54.046 60.3 12.9 55 8.4
2005-01-14 07:40:15 51°17.742 2°54.064 60.3 12.9 55 8.5
2005-01-14 07:40:21 51°17.755 2°54.092 59.7 12.9 53 8.4
2005-01-14 07:40:25 51°17.763 2°54.111 59.3 13 53 8.4
2005-01-14 07:40:29 51°17.772 2°54.128 58 12.9 51 8.3
2005-01-14 07:40:34 51°17.783 2°54.15 57.5 12.9 51 8.3
2005-01-14 07:40:41 51°17.798 2°54.182 58.1 12.7 53 8.3
2005-01-14 07:40:45 51°17.807 2°54.2 58.6 12.9 54 8.4
2005-01-14 07:40:50 51°17.818 2°54.223 57.5 12.9 54 8.4
2005-01-14 07:40:55 51°17.829 2°54.246 57.9 12.9 52 8.5
2005-01-14 07:41:01 51°17.842 2°54.273 57.6 12.9 52 8.5
2005-01-14 07:41:06 51°17.853 2°54.295 57.5 12.7 52 8.4
2005-01-14 07:41:11 51°17.863 2°54.319 58.7 12.8 53 8.3
2005-01-14 07:41:15 51°17.872 2°54.337 59 13 52 8.3
2005-01-14 07:41:21 51°17.885 2°54.365 58.7 12.8 54 8.4
2005-01-14 07:41:25 51°17.893 2°54.384 59.5 12.9 55 8.4
2005-01-14 07:41:31 51°17.906 2°54.411 59.5 12.9 55 8.4
2005-01-14 07:41:35 51°17.914 2°54.43 59.6 12.8 55 8.4
2005-01-14 07:41:41 51°17.926 2°54.458 60.4 12.8 55 8.4
2005-01-14 07:41:45 51°17.934 2°54.477 60.4 12.9 54 8.3
2005-01-14 07:41:50 51°17.945 2°54.499 59.8 12.9 54 8.3
2005-01-14 07:41:55 51°17.955 2°54.522 59.6 12.9 54 8.3
2005-01-14 07:42:01 51°17.968 2°54.549 59.2 12.9 54 8.4
2005-01-14 07:42:05 51°17.977 2°54.567 58.9 12.8 53 8.3
2005-01-14 07:42:09 51°17.985 2°54.586 58.6 12.8 53 8.3
2005-01-14 07:42:15 51°17.998 2°54.614 58.7 12.8 52 8.3
2005-01-14 07:42:21 51°18.012 2°54.64 58.2 13 53 8.4
2005-01-14 07:42:25 51°18.02 2°54.659 58.2 12.9 53 8.3
2005-01-14 07:42:31 51°18.033 2°54.686 58.7 12.8 53 8.4
2005-01-14 07:42:35 51°18.042 2°54.704 58.5 12.8 53 8.4
2005-01-14 07:42:41 51°18.054 2°54.732 58.8 12.8 53 8.3
2005-01-14 07:42:45 51°18.063 2°54.75 59.5 12.8 52 8.3
2005-01-14 07:42:51 51°18.075 2°54.778 59.6 12.9 53 8.3
2005-01-14 07:42:55 51°18.083 2°54.796 60.2 12.9 55 8.3
2005-01-14 07:43:01 51°18.096 2°54.825 60.8 13 56 8.4
2005-01-14 07:43:05 51°18.103 2°54.844 60.5 12.9 54 8.4
2005-01-14 07:43:10 51°18.114 2°54.866 60.2 12.9 56 8.3
2005-01-14 07:43:15 51°18.125 2°54.889 58.7 12.9 56 8.4
2005-01-14 07:43:21 51°18.138 2°54.916 59.4 12.6 54 8.5
2005-01-14 07:43:25 51°18.146 2°54.934 59.4 12.8 53 8.5
2005-01-14 07:43:30 51°18.157 2°54.957 58.7 12.9 53 8.5
2005-01-14 07:43:35 51°18.168 2°54.98 58.6 13.1 52 8.4
2005-01-14 07:43:41 51°18.182 2°55.007 58.7 13.2 54 8.5
2005-01-14 07:43:45 51°18.191 2°55.026 57.3 13.2 54 8.6
2005-01-14 07:43:50 51°18.202 2°55.047 57.4 12.9 53 8.7
2005-01-14 07:43:54 51°18.21 2°55.065 57.7 12.8 52 8.6
2005-01-14 07:44:01 51°18.225 2°55.098 58.8 12.8 52 8.6
2005-01-14 07:44:05 51°18.233 2°55.116 59.9 12.9 53 8.6
2005-01-14 07:44:10 51°18.244 2°55.139 58.9 12.9 53 8.6
2005-01-14 07:44:15 51°18.256 2°55.161 58.5 13.1 51 8.6
2005-01-14 07:44:21 51°18.27 2°55.187 56.6 13.1 50 8.6
2005-01-14 07:44:25 51°18.28 2°55.204 54.9 12.9 48 8.6
2005-01-14 07:44:31 51°18.295 2°55.229 54.4 13 48 8.7
2005-01-14 07:44:35 51°18.305 2°55.245 52.9 13 47 8.7
2005-01-14 07:44:41 51°18.32 2°55.271 52.9 13 47 8.7
2005-01-14 07:44:45 51°18.33 2°55.287 52.3 13 45 8.7
2005-01-14 07:44:51 51°18.345 2°55.312 52.2 13 45 8.7
2005-01-14 07:44:55 51°18.354 2°55.329 52.2 12.9 45 8.7
2005-01-14 07:45:01 51°18.369 2°55.355 53.5 13 47 8.7
2005-01-14 07:45:05 51°18.379 2°55.371 53.7 13.2 47 8.7
2005-01-14 07:45:09 51°18.389 2°55.389 54.1 13.2 49 8.8
2005-01-14 07:45:15 51°18.403 2°55.415 54.3 13.1 48 8.9
2005-01-14 07:45:21 51°18.418 2°55.44 54.3 13 49 8.9
2005-01-14 07:45:25 51°18.427 2°55.458 54.6 12.8 48 8.9
2005-01-14 07:45:31 51°18.441 2°55.484 55.1 12.9 49 8.9
2005-01-14 07:45:35 51°18.451 2°55.501 54.5 13.1 48 8.9
2005-01-14 07:45:41 51°18.466 2°55.526 54.2 13.1 47 8.9
2005-01-14 07:45:45 51°18.476 2°55.544 53.9 13 48 8.9
2005-01-14 07:45:50 51°18.488 2°55.564 53.5 13 46 8.9
2005-01-14 07:45:55 51°18.501 2°55.585 53.1 13 46 8.9
2005-01-14 07:46:01 51°18.515 2°55.61 53.3 13 46 9
2005-01-14 07:46:05 51°18.525 2°55.627 53 13.1 46 8.9
2005-01-14 07:46:11 51°18.54 2°55.652 52.7 13.1 46 9
2005-01-14 07:46:15 51°18.55 2°55.67 53.3 13 47 9
2005-01-14 07:46:21 51°18.565 2°55.695 53.8 13 47 9.2
2005-01-14 07:46:25 51°18.575 2°55.712 53.4 13 46 9.1
2005-01-14 07:46:31 51°18.589 2°55.738 54 13 47 9
2005-01-14 07:46:35 51°18.599 2°55.755 54.4 13.2 47 9.1
2005-01-14 07:46:41 51°18.614 2°55.781 54.2 13.2 48 9.2
2005-01-14 07:46:45 51°18.624 2°55.798 54.4 13.2 47 9.3
2005-01-14 07:46:49 51°18.634 2°55.816 54.1 13.2 48 9.4
2005-01-14 07:46:55 51°18.648 2°55.841 53.8 13 47 9.3
2005-01-14 07:47:01 51°18.663 2°55.866 53.7 13.1 48 9.4
2005-01-14 07:47:05 51°18.673 2°55.884 53.8 13 48 9.4
2005-01-14 07:47:10 51°18.685 2°55.905 54.4 13.1 47 9.2
2005-01-14 07:47:15 51°18.698 2°55.927 53.7 13.1 47 9.3
2005-01-14 07:47:21 51°18.713 2°55.953 54.3 13.2 49 9.2
2005-01-14 07:47:26 51°18.724 2°55.974 53.8 13 49 9.3
2005-01-14 07:47:29 51°18.732 2°55.986 54.2 12.9 48 9.4
2005-01-14 07:47:35 51°18.746 2°56.013 54.4 12.9 49 9.3
2005-01-14 07:47:41 51°18.76 2°56.039 55.2 12.9 49 9.2
2005-01-14 07:47:45 51°18.77 2°56.056 55.8 13.1 49 9.3
2005-01-14 07:47:50 51°18.781 2°56.079 56.1 13 49 9.4
2005-01-14 07:47:55 51°18.793 2°56.1 56.8 13 51 9.1
2005-01-14 07:48:01 51°18.806 2°56.127 56.3 13 50 9.2
2005-01-14 07:48:05 51°18.816 2°56.144 56.4 12.9 49 9.3
2005-01-14 07:48:11 51°18.83 2°56.171 56.5 12.9 49 9.4
2005-01-14 07:48:15 51°18.839 2°56.188 56.4 12.9 49 9.3
2005-01-14 07:48:21 51°18.853 2°56.215 56.5 13 51 9.3
2005-01-14 07:48:25 51°18.862 2°56.232 56.6 13 49 9.3
2005-01-14 07:48:31 51°18.876 2°56.259 56.9 13 49 9.4
2005-01-14 07:48:35 51°18.886 2°56.277 56.4 13.1 49 9.5
2005-01-14 07:48:41 51°18.899 2°56.303 56.3 12.9 51 9.5
2005-01-14 07:48:45 51°18.909 2°56.321 56.7 12.9 49 9.5
2005-01-14 07:48:51 51°18.923 2°56.347 56.8 12.9 50 9.4
2005-01-14 07:48:55 51°18.932 2°56.365 57.2 13 50 9.4
2005-01-14 07:49:01 51°18.946 2°56.391 56.9 13.1 50 9.4
2005-01-14 07:49:05 51°18.955 2°56.41 56.1 13 51 9.3
2005-01-14 07:49:09 51°18.965 2°56.427 55.9 13 48 9.3
2005-01-14 07:49:15 51°18.979 2°56.452 55.9 12.9 50 9.3
2005-01-14 07:49:21 51°18.993 2°56.479 56.2 12.9 49 9.4
2005-01-14 07:49:25 51°19.002 2°56.496 56.4 13 51 9.3
2005-01-14 07:49:31 51°19.015 2°56.524 57.6 13 51 9.3
2005-01-14 07:49:35 51°19.024 2°56.543 58.2 13 51 9.3
2005-01-14 07:49:41 51°19.037 2°56.57 58.8 13 53 9.3
2005-01-14 07:49:45 51°19.046 2°56.588 59.4 12.8 54 9.4
2005-01-14 07:49:51 51°19.058 2°56.616 60.5 12.8 54 9.2
2005-01-14 07:49:55 51°19.067 2°56.634 60.4 12.8 54 9.2
2005-01-14 07:50:01 51°19.079 2°56.662 60.4 12.9 54 9.2
2005-01-14 07:50:05 51°19.088 2°56.68 59.7 12.9 52 9.1
2005-01-14 07:50:10 51°19.099 2°56.703 59.6 13 54 9.2
2005-01-14 07:50:15 51°19.11 2°56.726 59.2 13 54 9.2
2005-01-14 07:50:21 51°19.123 2°56.753 59.3 12.9 52 9.3
2005-01-14 07:50:25 51°19.131 2°56.771 59.4 12.9 54 9.3
2005-01-14 07:50:30 51°19.143 2°56.794 59.2 12.9 54 9.2
2005-01-14 07:50:35 51°19.153 2°56.816 59 12.9 55 9.2
2005-01-14 07:50:41 51°19.167 2°56.844 59.8 13 53 9.2
2005-01-14 07:50:45 51°19.174 2°56.862 59.4 13 53 9.2
2005-01-14 07:50:50 51°19.185 2°56.886 60.3 12.8 55 9.2
2005-01-14 07:50:54 51°19.194 2°56.904 60.2 12.9 54 9.2
2005-01-14 07:51:01 51°19.209 2°56.936 60.7 12.9 54 9.3
2005-01-14 07:51:05 51°19.217 2°56.955 61 12.9 55 9.2
2005-01-14 07:51:10 51°19.227 2°56.978 61.8 12.9 55 9.2
2005-01-14 07:51:15 51°19.237 2°57.001 61.2 12.8 55 9.2
2005-01-14 07:51:21 51°19.249 2°57.03 62 12.8 55 9.3
2005-01-14 07:51:25 51°19.257 2°57.049 62.4 12.9 56 9.2
2005-01-14 07:51:30 51°19.266 2°57.073 63.2 12.8 58 9.1
2005-01-14 07:51:34 51°19.274 2°57.093 64.3 12.8 57 9.2
2005-01-14 07:51:41 51°19.287 2°57.127 64.4 12.8 57 9.2
2005-01-14 07:51:45 51°19.294 2°57.146 65 12.9 59 9.3
2005-01-14 07:51:49 51°19.302 2°57.165 65 12.9 59 9.2
2005-01-14 07:51:55 51°19.312 2°57.195 66 12.8 60 9.2
2005-01-14 07:52:01 51°19.323 2°57.224 65.6 12.9 60 9.2
2005-01-14 07:52:05 51°19.331 2°57.243 65.7 12.6 59 9.2
2005-01-14 07:52:11 51°19.341 2°57.273 66.1 12.7 60 9.3
2005-01-14 07:52:15 51°19.348 2°57.293 65.9 12.7 60 9.2
2005-01-14 07:52:21 51°19.36 2°57.321 65.3 12.9 59 9.3
2005-01-14 07:52:25 51°19.367 2°57.34 64.6 12.7 58 9.2
2005-01-14 07:52:29 51°19.375 2°57.36 65.1 12.7 59 9.3
2005-01-14 07:52:35 51°19.386 2°57.389 64.4 12.8 57 9.1
2005-01-14 07:52:41 51°19.398 2°57.417 63.9 12.8 57 9.2
2005-01-14 07:52:45 51°19.405 2°57.436 63.8 12.7 59 9.4
2005-01-14 07:52:50 51°19.415 2°57.46 63.8 12.8 57 9.1
2005-01-14 07:52:55 51°19.425 2°57.484 63.8 12.8 57 9.2
2005-01-14 07:53:01 51°19.436 2°57.513 64.5 12.7 60 9.2
2005-01-14 07:53:05 51°19.443 2°57.532 65 12.8 60 9.1
2005-01-14 07:53:10 51°19.452 2°57.556 64.7 12.8 59 9.1
2005-01-14 07:53:15 51°19.462 2°57.58 65.3 12.7 59 9.2
2005-01-14 07:53:21 51°19.472 2°57.609 65.3 12.7 59 9.2
2005-01-14 07:53:25 51°19.479 2°57.629 65.8 12.6 59 9.1
2005-01-14 07:53:31 51°19.49 2°57.658 66.5 12.7 60 9.1
2005-01-14 07:53:35 51°19.497 2°57.678 66.8 12.8 61 9.2
2005-01-14 07:53:41 51°19.507 2°57.708 67 12.7 60 9
2005-01-14 07:53:45 51°19.514 2°57.728 67.2 12.7 61 9.1
2005-01-14 07:53:51 51°19.524 2°57.757 67.5 12.7 61 9.1
2005-01-14 07:53:55 51°19.531 2°57.777 67.4 12.7 60 9.1
2005-01-14 07:54:01 51°19.541 2°57.806 67.5 12.7 62 9
2005-01-14 07:54:05 51°19.548 2°57.826 67.4 12.6 62 9
2005-01-14 07:54:09 51°19.554 2°57.846 67.5 12.6 61 9.1
2005-01-14 07:54:15 51°19.565 2°57.875 67.8 12.5 61 9.1
2005-01-14 07:54:21 51°19.575 2°57.904 67.7 12.5 61 9
2005-01-14 07:54:25 51°19.581 2°57.924 67.7 12.6 63 9
2005-01-14 07:54:30 51°19.59 2°57.949 67.9 12.5 61 9
2005-01-14 07:54:35 51°19.598 2°57.973 67.6 12.6 62 8.9
2005-01-14 07:54:41 51°19.609 2°58.003 67.4 12.7 61 8.9
2005-01-14 07:54:45 51°19.616 2°58.022 66.7 12.8 61 8.9
2005-01-14 07:54:49 51°19.623 2°58.041 66.6 12.6 60 8.9
2005-01-14 07:54:55 51°19.633 2°58.071 67.5 12.5 62 9
2005-01-14 07:55:01 51°19.642 2°58.101 67.5 12.6 61 8.9
2005-01-14 07:55:05 51°19.65 2°58.12 67.9 12.6 60 9
2005-01-14 07:55:11 51°19.659 2°58.15 67.7 12.6 60 9
2005-01-14 07:55:15 51°19.665 2°58.17 69.1 12.5 62 9
2005-01-14 07:55:21 51°19.675 2°58.199 68.6 12.6 63 9
2005-01-14 07:55:25 51°19.682 2°58.218 68.1 12.5 61 9
2005-01-14 07:55:31 51°19.691 2°58.249 69.6 12.5 61 9
2005-01-14 07:55:35 51°19.697 2°58.27 69.9 12.9 62 9
2005-01-14 07:55:41 51°19.706 2°58.3 70.7 12.6 67 9
2005-01-14 07:55:45 51°19.711 2°58.321 72.4 12.4 66 9
2005-01-14 07:55:51 51°19.718 2°58.352 73.3 12.4 67 8.9
2005-01-14 07:55:55 51°19.724 2°58.373 74.5 12.6 68 8.9
2005-01-14 07:56:01 51°19.731 2°58.403 74.3 12.5 69 9
2005-01-14 07:56:05 51°19.736 2°58.424 75.3 12.5 70 8.9
2005-01-14 07:56:09 51°19.74 2°58.445 75.6 12.5 70 9
2005-01-14 07:56:15 51°19.747 2°58.476 75.5 12.5 70 8.9
2005-01-14 07:56:21 51°19.755 2°58.508 75.9 12.6 69 8.8
2005-01-14 07:56:25 51°19.76 2°58.529 75.4 12.6 70 8.9
2005-01-14 07:56:31 51°19.767 2°58.56 75.1 12.5 70 8.9
2005-01-14 07:56:36 51°19.773 2°58.586 75.7 12.4 70 8.8
2005-01-14 07:56:41 51°19.779 2°58.611 76.3 12.5 71 8.9
2005-01-14 07:56:45 51°19.782 2°58.633 76.2 12.6 72 8.9
2005-01-14 07:56:51 51°19.789 2°58.664 76.1 12.5 69 8.8
2005-01-14 07:56:55 51°19.794 2°58.685 76.3 12.3 71 8.7
2005-01-14 07:57:01 51°19.8 2°58.716 76.8 12.3 72 8.7
2005-01-14 07:57:05 51°19.805 2°58.737 78 12.6 72 8.7
2005-01-14 07:57:10 51°19.81 2°58.764 77.9 12.6 72 8.7
2005-01-14 07:57:15 51°19.815 2°58.79 77.9 12.6 72 8.7
2005-01-14 07:57:21 51°19.822 2°58.822 77.9 12.5 73 8.8
2005-01-14 07:57:25 51°19.826 2°58.843 77.3 12.5 71 8.9
2005-01-14 07:57:31 51°19.833 2°58.874 76.6 12.5 71 8.8
2005-01-14 07:57:35 51°19.838 2°58.895 76.5 12.5 70 8.8
2005-01-14 07:57:41 51°19.845 2°58.926 76.2 12.5 71 8.8
2005-01-14 07:57:45 51°19.849 2°58.946 75.2 12.4 69 8.7
2005-01-14 07:57:51 51°19.857 2°58.977 75.9 12.3 72 8.7
2005-01-14 07:57:55 51°19.861 2°58.998 76.2 12.5 72 8.5
2005-01-14 07:58:01 51°19.869 2°59.029 76.2 12.6 72 8.7
2005-01-14 07:58:05 51°19.873 2°59.05 75.5 12.4 71 8.7
2005-01-14 07:58:10 51°19.879 2°59.076 75.5 12.4 71 8.6
2005-01-14 07:58:15 51°19.885 2°59.102 75.9 12.5 72 8.7
2005-01-14 07:58:21 51°19.892 2°59.133 75.4 12.5 70 8.7
2005-01-14 07:58:25 51°19.897 2°59.154 75.8 12.4 70 8.7
2005-01-14 07:58:31 51°19.904 2°59.186 76 12.5 69 8.8
2005-01-14 07:58:35 51°19.909 2°59.207 76.3 12.5 70 8.8
2005-01-14 07:58:41 51°19.915 2°59.238 76.5 12.5 71 8.6
2005-01-14 07:58:45 51°19.92 2°59.259 76.9 12.5 72 8.7
2005-01-14 07:58:51 51°19.926 2°59.29 76.8 12.5 70 8.7
2005-01-14 07:58:55 51°19.931 2°59.311 77.3 12.6 70 8.6
2005-01-14 07:59:01 51°19.937 2°59.342 76.9 12.4 72 8.7
2005-01-14 07:59:05 51°19.941 2°59.363 77.1 12.4 72 8.7
2005-01-14 07:59:11 51°19.949 2°59.394 76.9 12.4 72 8.7
2005-01-14 07:59:15 51°19.953 2°59.416 76.3 12.6 69 8.6
2005-01-14 07:59:21 51°19.96 2°59.446 75.4 12.4 69 8.6
2005-01-14 07:59:25 51°19.965 2°59.467 76.2 12.4 71 8.6
2005-01-14 07:59:30 51°19.971 2°59.493 76.1 12.5 70 8.6
2005-01-14 07:59:35 51°19.977 2°59.519 76.1 12.5 71 8.7
2005-01-14 07:59:41 51°19.984 2°59.55 76.3 12.4 70 8.6
2005-01-14 07:59:45 51°19.989 2°59.571 75.9 12.4 70 8.6
2005-01-14 07:59:51 51°19.996 2°59.602 76.2 12.4 70 8.6
2005-01-14 07:59:55 51°20 2°59.623 75.5 12.4 70 8.7
2005-01-14 08:00:01 51°20.007 2°59.654 75.7 12.3 70 8.7
2005-01-14 08:00:05 51°20.012 2°59.675 76.8 12.4 71 8.6
2005-01-14 08:00:09 51°20.017 2°59.696 76.8 12.7 70 8.6
2005-01-14 08:00:16 51°20.025 2°59.733 76.4 12.6 72 8.6
2005-01-14 08:00:21 51°20.03 2°59.759 75.8 12.6 72 8.7
2005-01-14 08:00:25 51°20.035 2°59.779 76.6 12.4 71 8.6
2005-01-14 08:00:31 51°20.041 2°59.811 76.6 12.5 72 8.6
2005-01-14 08:00:35 51°20.046 2°59.832 76.7 12.4 70 8.6
2005-01-14 08:00:41 51°20.052 2°59.863 78.2 12.4 74 8.5
2005-01-14 08:00:45 51°20.056 2°59.884 77.1 12.4 72 8.6
2005-01-14 08:00:51 51°20.062 2°59.915 78 12.4 72 8.5
2005-01-14 08:00:55 51°20.067 2°59.936 77.8 12.4 72 8.5
2005-01-14 08:01:01 51°20.073 2°59.967 77.3 12.4 72 8.5
2005-01-14 08:01:05 51°20.078 2°59.988 77.6 12.3 71 8.4
2005-01-14 08:01:10 51°20.084 3°0.014 77.2 12.4 71 8.4
2005-01-14 08:01:16 51°20.091 3°0.045 76.5 12.4 70 8.5
2005-01-14 08:01:21 51°20.097 3°0.07 75.4 12.3 69 8.5
2005-01-14 08:01:26 51°20.103 3°0.096 75.3 12.3 69 8.5
2005-01-14 08:01:31 51°20.11 3°0.122 75.2 12.4 69 8.5
2005-01-14 08:01:35 51°20.115 3°0.142 74.1 12.3 68 8.6
2005-01-14 08:01:41 51°20.121 3°0.173 74.7 12.1 69 8.5
2005-01-14 08:01:45 51°20.126 3°0.194 76.3 12.3 71 8.4
2005-01-14 08:01:51 51°20.133 3°0.225 75.4 12.5 69 8.4
2005-01-14 08:01:55 51°20.138 3°0.246 76.5 12.4 72 8.5
2005-01-14 08:02:01 51°20.144 3°0.277 76.8 12.4 72 8.5
2005-01-14 08:02:05 51°20.148 3°0.297 77.3 12.2 72 8.4
2005-01-14 08:02:09 51°20.152 3°0.318 78.2 12.3 73 8.4
2005-01-14 08:02:15 51°20.159 3°0.349 77.3 12.4 72 8.3
2005-01-14 08:02:21 51°20.165 3°0.381 77.3 12.3 71 8.4
2005-01-14 08:02:25 51°20.169 3°0.401 76.8 12.3 72 8.4
2005-01-14 08:02:31 51°20.176 3°0.432 76.8 12.3 71 8.3
2005-01-14 08:02:36 51°20.181 3°0.459 78.3 12.4 75 8.4
2005-01-14 08:02:41 51°20.185 3°0.485 79.1 12.5 73 8.4
2005-01-14 08:02:45 51°20.189 3°0.506 79.6 12.2 75 8.3
2005-01-14 08:02:51 51°20.193 3°0.538 80.7 12.2 75 8.4
2005-01-14 08:02:55 51°20.196 3°0.559 81.5 12.1 76 8.4
2005-01-14 08:03:01 51°20.201 3°0.591 82.1 12.4 77 8.3
2005-01-14 08:03:05 51°20.204 3°0.613 82.7 12.4 77 8.2
2005-01-14 08:03:10 51°20.207 3°0.64 82.6 12.4 77 8.3
2005-01-14 08:03:16 51°20.212 3°0.671 83.1 12.3 78 8.3
2005-01-14 08:03:21 51°20.215 3°0.698 82.7 12.1 77 8.2
2005-01-14 08:03:26 51°20.22 3°0.724 83 12.4 75 8.2
2005-01-14 08:03:30 51°20.223 3°0.745 81.5 12.4 77 8.2
2005-01-14 08:03:35 51°20.228 3°0.771 80.1 12.3 73 8
2005-01-14 08:03:41 51°20.234 3°0.802 79.9 12.1 75 8.3
2005-01-14 08:03:46 51°20.239 3°0.828 78.4 12.2 72 8.2
2005-01-14 08:03:50 51°20.244 3°0.848 77.8 12.2 74 8.3
2005-01-14 08:03:55 51°20.248 3°0.874 77.5 12.1 75 8.1
2005-01-14 08:04:01 51°20.254 3°0.905 78.1 12.2 72 8
2005-01-14 08:04:05 51°20.258 3°0.926 78.3 12.2 73 8.1
2005-01-14 08:04:11 51°20.263 3°0.957 79.1 12.2 73 8.1
2005-01-14 08:04:15 51°20.268 3°0.978 79.8 12.2 73 8.1
2005-01-14 08:04:21 51°20.272 3°1.009 80.9 12 75 8
2005-01-14 08:04:25 51°20.275 3°1.03 81.5 12.4 76 7.9
2005-01-14 08:04:29 51°20.278 3°1.052 81.3 12.4 77 7.9
2005-01-14 08:04:35 51°20.283 3°1.083 81.3 12.1 77 7.9
2005-01-14 08:04:41 51°20.288 3°1.114 82 12.1 78 8
2005-01-14 08:04:45 51°20.29 3°1.135 82 12.2 80 7.9
2005-01-14 08:04:49 51°20.294 3°1.156 82.5 12.2 75 7.9
2005-01-14 08:04:56 51°20.3 3°1.193 81.5 12.2 78 8
2005-01-14 08:05:01 51°20.303 3°1.219 81.3 12.1 75 7.9
2005-01-14 08:05:05 51°20.306 3°1.24 82 11.9 77 7.8
2005-01-14 08:05:10 51°20.311 3°1.266 81.7 12 76 7.8
2005-01-14 08:05:15 51°20.315 3°1.292 80.4 12 76 7.9
2005-01-14 08:05:21 51°20.321 3°1.322 79.9 12.3 75 7.9
2005-01-14 08:05:25 51°20.324 3°1.343 79.8 12 75 7.8
2005-01-14 08:05:31 51°20.33 3°1.374 79.3 12.2 73 7.7
2005-01-14 08:05:35 51°20.334 3°1.394 78.3 12.2 74 7.8
2005-01-14 08:05:41 51°20.34 3°1.425 78.5 12.2 74 7.8
2005-01-14 08:05:45 51°20.344 3°1.446 79.3 12.1 73 7.8
2005-01-14 08:05:51 51°20.349 3°1.476 79.6 12.1 77 7.8
2005-01-14 08:05:56 51°20.353 3°1.503 81 12.1 76 7.8
2005-01-14 08:06:01 51°20.357 3°1.528 81.5 12 77 7.9
2005-01-14 08:06:05 51°20.359 3°1.549 83.3 12 80 7.8
2005-01-14 08:06:09 51°20.361 3°1.57 83.8 12.1 79 7.7
2005-01-14 08:06:15 51°20.365 3°1.602 84.3 12.1 79 7.8
2005-01-14 08:06:20 51°20.368 3°1.628 83.9 12 79 7.9
2005-01-14 08:06:25 51°20.372 3°1.654 83.1 12 77 7.7
2005-01-14 08:06:31 51°20.378 3°1.684 81.5 12 75 7.7
2005-01-14 08:06:35 51°20.381 3°1.705 79.6 11.9 75 7.8
2005-01-14 08:06:41 51°20.387 3°1.735 78.8 11.9 73 7.9
2005-01-14 08:06:45 51°20.392 3°1.755 77.8 12.1 72 7.7
2005-01-14 08:06:51 51°20.399 3°1.785 76.4 12.1 71 7.8
2005-01-14 08:06:55 51°20.403 3°1.805 76.4 11.8 70 7.7
2005-01-14 08:07:01 51°20.41 3°1.834 77.7 11.9 70 7.7
2005-01-14 08:07:05 51°20.415 3°1.854 76.1 11.9 70 7.7
2005-01-14 08:07:09 51°20.419 3°1.874 76.1 11.8 70 7.9
2005-01-14 08:07:15 51°20.425 3°1.904 77.6 11.7 73 7.8
2005-01-14 08:07:21 51°20.431 3°1.934 78.2 11.9 72 7.9
2005-01-14 08:07:25 51°20.434 3°1.955 79.8 11.9 74 7.9
2005-01-14 08:07:30 51°20.438 3°1.98 81.2 12 75 7.7
2005-01-14 08:07:35 51°20.441 3°2.007 82.3 12 78 7.7
2005-01-14 08:07:41 51°20.445 3°2.037 82.5 11.9 76 8
2005-01-14 08:07:45 51°20.448 3°2.057 82.7 11.7 78 7.9
2005-01-14 08:07:51 51°20.453 3°2.087 83.6 11.7 78 7.7
2005-01-14 08:07:54 51°20.455 3°2.103 82.7 12.1 77 7.7
2005-01-14 08:08:01 51°20.461 3°2.139 81 12 74 7.6
2005-01-14 08:08:05 51°20.465 3°2.158 80.6 11.6 72 7.7
2005-01-14 08:08:11 51°20.471 3°2.187 79.1 11.6 73 7.7
2005-01-14 08:08:15 51°20.475 3°2.207 78.8 11.7 71 7.9
2005-01-14 08:08:21 51°20.481 3°2.237 77.4 11.7 70 7.9
2005-01-14 08:08:26 51°20.487 3°2.262 77.1 11.9 69 7.9
2005-01-14 08:08:31 51°20.492 3°2.287 76.5 11.9 72 7.9
2005-01-14 08:08:35 51°20.496 3°2.307 76.9 11.9 70 7.9
2005-01-14 08:08:41 51°20.503 3°2.337 77.7 11.8 73 7.9
2005-01-14 08:08:45 51°20.506 3°2.357 78.8 11.8 72 8
2005-01-14 08:08:50 51°20.51 3°2.382 80 11.9 74 7.8
2005-01-14 08:08:55 51°20.514 3°2.404 80.1 11.3 75 7.8
2005-01-14 08:09:01 51°20.517 3°2.43 82 10.2 76 7.8
2005-01-14 08:09:05 51°20.518 3°2.448 84.9 10 79 7.8
2005-01-14 08:09:10 51°20.519 3°2.468 88.7 9.4 84 7.9
2005-01-14 08:09:15 51°20.521 3°2.486 89.1 8.5 84 8.1
2005-01-14 08:09:21 51°20.523 3°2.505 88.8 7.7 84 8.3
2005-01-14 08:09:25 51°20.525 3°2.516 85.4 6.7 75 8.3
2005-01-14 08:09:31 51°20.529 3°2.53 79.9 6.7 75 8.3
2005-01-14 08:09:36 51°20.532 3°2.541 75.4 5.6 64 8.3
2005-01-14 08:09:41 51°20.536 3°2.55 69.3 5.6 64 8.2
2005-01-14 08:09:45 51°20.54 3°2.555 66.3 4.9 56 8.2
2005-01-14 08:09:50 51°20.544 3°2.563 62.4 4.3 52 8.3
2005-01-14 08:09:53 51°20.547 3°2.566 59.8 4.2 40 8.3
2005-01-14 08:10:01 51°20.553 3°2.574 56.9 3.9 44 8.4
2005-01-14 08:10:05 51°20.556 3°2.578 55.2 3.7 36 8.3
2005-01-14 08:10:10 51°20.56 3°2.583 52.8 3.6 36 8.3
2005-01-14 08:10:15 51°20.564 3°2.586 51.4 3.4 24 8.2
2005-01-14 08:10:21 51°20.569 3°2.59 49.7 3.1 36 8.3
2005-01-14 08:10:25 51°20.572 3°2.591 48.1 2.8 22 8.3
2005-01-14 08:10:31 51°20.576 3°2.593 46.9 2.6 23 8.3
2005-01-14 08:10:35 51°20.578 3°2.595 45.2 2.7 10 8.3
2005-01-14 08:10:41 51°20.582 3°2.594 42.3 2.2 16 8.4
2005-01-14 08:10:45 51°20.585 3°2.595 39.1 2.2 3 8.5
2005-01-14 08:10:51 51°20.589 3°2.593 33.9 2.1 350 8.5
2005-01-14 08:10:55 51°20.591 3°2.593 30.3 2.2 344 8.4
2005-01-14 08:11:01 51°20.594 3°2.591 26.2 2.1 345 8.4
2005-01-14 08:11:05 51°20.596 3°2.589 22.2 2.1 332 8.4
2005-01-14 08:11:09 51°20.598 3°2.587 17.6 2 329 8.4
2005-01-14 08:11:15 51°20.6 3°2.583 14.6 1.9 319 8.5
2005-01-14 08:11:21 51°20.602 3°2.58 10.1 1.8 315 8.5
2005-01-14 08:11:25 51°20.604 3°2.577 7.1 1.9 310 8.5
2005-01-14 08:11:30 51°20.605 3°2.574 3.8 1.9 310 8.5
2005-01-14 08:11:35 51°20.606 3°2.57 1.5 1.9 310 8.6
2005-01-14 08:11:41 51°20.608 3°2.566 359.2 1.9 302 8.5
2005-01-14 08:11:46 51°20.609 3°2.563 357.2 1.9 302 8.6
2005-01-14 08:11:51 51°20.61 3°2.559 355.3 1.9 302 8.5
2005-01-14 08:11:55 51°20.611 3°2.556 353.3 1.8 290 8.4
2005-01-14 08:12:01 51°20.612 3°2.552 351.7 1.8 290 8.5
2005-01-14 08:12:05 51°20.612 3°2.549 349.8 1.7 285 8.5
2005-01-14 08:12:09 51°20.613 3°2.546 348.1 1.7 280 8.5
2005-01-14 08:12:15 51°20.613 3°2.542 346.9 1.6 280 8.5
2005-01-14 08:12:21 51°20.613 3°2.538 345.3 1.6 275 8.5
2005-01-14 08:12:25 51°20.613 3°2.535 344.7 1.5 274 8.5
2005-01-14 08:12:31 51°20.613 3°2.531 343.4 1.5 275 8.6
2005-01-14 08:12:35 51°20.614 3°2.528 342.7 1.5 280 8.6
2005-01-14 08:12:41 51°20.614 3°2.524 341.6 1.6 276 8.6
2005-01-14 08:12:45 51°20.614 3°2.521 340.9 1.6 280 8.6
2005-01-14 08:12:50 51°20.615 3°2.518 339.7 1.6 280 8.6
2005-01-14 08:12:55 51°20.615 3°2.514 338.8 1.6 278 8.6
2005-01-14 08:13:01 51°20.615 3°2.509 337.8 1.7 276 8.6
2005-01-14 08:13:05 51°20.615 3°2.506 336.9 1.6 278 8.6
2005-01-14 08:13:11 51°20.616 3°2.502 336 1.7 278 8.6
2005-01-14 08:13:15 51°20.616 3°2.499 335.1 1.7 277 8.5
2005-01-14 08:13:21 51°20.616 3°2.494 333.9 1.7 277 8.6
2005-01-14 08:13:25 51°20.617 3°2.492 333.3 1.9 274 8.5
2005-01-14 08:13:31 51°20.617 3°2.487 332.1 1.5 280 8.5
2005-01-14 08:13:35 51°20.617 3°2.484 330.9 1.8 279 8.5
2005-01-14 08:13:41 51°20.617 3°2.479 330.2 1.8 275 8.5
2005-01-14 08:13:45 51°20.618 3°2.476 329.1 1.7 274 8.5
2005-01-14 08:13:50 51°20.618 3°2.472 327.7 1.8 274 8.6
2005-01-14 08:13:55 51°20.618 3°2.468 326.6 1.8 276 8.6
2005-01-14 08:14:01 51°20.618 3°2.464 325.1 1.7 273 8.6
2005-01-14 08:14:05 51°20.619 3°2.461 324.4 1.7 277 8.6
2005-01-14 08:14:11 51°20.619 3°2.456 323.4 2 266 8.5
2005-01-14 08:14:15 51°20.619 3°2.453 321.8 1.7 279 8.5
2005-01-14 08:14:21 51°20.619 3°2.448 320.8 1.8 273 8.6
2005-01-14 08:14:25 51°20.619 3°2.445 319.4 1.8 272 8.6
2005-01-14 08:14:30 51°20.619 3°2.441 318.5 1.7 279 8.7
2005-01-14 08:14:35 51°20.62 3°2.437 317.1 1.7 279 8.6
2005-01-14 08:14:41 51°20.62 3°2.432 316.3 1.9 270 8.6
2005-01-14 08:14:45 51°20.62 3°2.429 314.9 1.9 273 8.7
2005-01-14 08:14:51 51°20.62 3°2.424 314.1 1.9 273 8.6
2005-01-14 08:14:55 51°20.621 3°2.421 312.8 1.9 277 8.5
2005-01-14 08:15:01 51°20.621 3°2.416 311.6 1.9 271 8.7
2005-01-14 08:15:05 51°20.621 3°2.412 310.2 1.8 272 8.5
2005-01-14 08:15:09 51°20.621 3°2.409 309.5 1.9 268 8.6
2005-01-14 08:15:15 51°20.621 3°2.404 308.3 1.9 271 8.6
2005-01-14 08:15:21 51°20.621 3°2.4 307.5 1.9 271 8.5
2005-01-14 08:15:26 51°20.621 3°2.395 306.2 1.9 270 8.6
2005-01-14 08:15:31 51°20.622 3°2.391 304.9 1.9 267 8.6
2005-01-14 08:15:35 51°20.622 3°2.388 304.1 1.8 275 8.6
2005-01-14 08:15:41 51°20.622 3°2.383 303 1.9 268 8.7
2005-01-14 08:15:45 51°20.622 3°2.379 301.8 1.9 273 8.6
2005-01-14 08:15:50 51°20.622 3°2.375 301.1 1.9 274 8.6
2005-01-14 08:15:55 51°20.622 3°2.371 299.3 1.8 280 8.7
2005-01-14 08:16:01 51°20.622 3°2.366 299 2 262 8.7
2005-01-14 08:16:05 51°20.622 3°2.363 298 1.9 274 8.7
2005-01-14 08:16:10 51°20.622 3°2.359 297 2 263 8.7
2005-01-14 08:16:15 51°20.622 3°2.354 296 1.9 273 8.7
2005-01-14 08:16:21 51°20.622 3°2.349 295.4 1.9 269 8.7
2005-01-14 08:16:25 51°20.622 3°2.346 294.1 1.9 271 8.7
2005-01-14 08:16:31 51°20.622 3°2.341 293.2 2 268 8.6
2005-01-14 08:16:36 51°20.622 3°2.337 292.6 1.9 265 8.7
2005-01-14 08:16:41 51°20.622 3°2.332 291.1 1.9 276 8.5
2005-01-14 08:16:45 51°20.623 3°2.33 290.8 1.8 278 8.6
2005-01-14 08:16:51 51°20.622 3°2.324 289.4 1.9 270 8.6
2005-01-14 08:16:55 51°20.622 3°2.321 288.1 1.9 268 8.6
2005-01-14 08:17:01 51°20.622 3°2.316 287.8 1.9 265 8.6
2005-01-14 08:17:05 51°20.622 3°2.312 286.6 1.9 270 8.7
2005-01-14 08:17:10 51°20.622 3°2.308 285.9 1.9 270 8.6
2005-01-14 08:17:15 51°20.622 3°2.304 285.2 2 262 8.6
2005-01-14 08:17:21 51°20.622 3°2.299 283.8 1.9 275 8.5
2005-01-14 08:17:26 51°20.622 3°2.295 283.3 1.8 268 8.7
2005-01-14 08:17:31 51°20.621 3°2.291 282 1.8 269 8.6
2005-01-14 08:17:35 51°20.622 3°2.287 281.3 2.3 285 8.6
2005-01-14 08:17:41 51°20.621 3°2.283 280.5 2.1 268 8.6
2005-01-14 08:17:46 51°20.621 3°2.278 279.1 1.9 273 8.6
2005-01-14 08:17:51 51°20.621 3°2.274 278.7 1.9 261 8.6
2005-01-14 08:17:55 51°20.621 3°2.271 277.3 1.9 269 8.6
2005-01-14 08:18:01 51°20.621 3°2.266 276.9 1.9 261 8.7
2005-01-14 08:18:05 51°20.62 3°2.263 275.8 1.9 264 8.7
2005-01-14 08:18:09 51°20.62 3°2.26 275.3 1.9 266 8.8
2005-01-14 08:18:15 51°20.62 3°2.255 274.5 1.8 270 8.7
2005-01-14 08:18:21 51°20.62 3°2.25 273.7 1.9 257 8.6
2005-01-14 08:18:25 51°20.62 3°2.247 272.8 1.9 262 8.7
2005-01-14 08:18:30 51°20.62 3°2.243 272.1 1.8 264 8.7
2005-01-14 08:18:35 51°20.619 3°2.239 271.4 1.8 264 8.7
2005-01-14 08:18:41 51°20.619 3°2.234 271.3 1.9 281 8.6
2005-01-14 08:18:45 51°20.619 3°2.231 270.2 1.9 257 8.7
2005-01-14 08:18:50 51°20.619 3°2.226 270 1.9 279 8.6
2005-01-14 08:18:55 51°20.619 3°2.222 268.9 1.9 263 8.6
2005-01-14 08:19:00 51°20.619 3°2.218 268.2 1.9 268 8.7
2005-01-14 08:19:05 51°20.618 3°2.214 267.9 1.9 268 8.7
2005-01-14 08:19:11 51°20.618 3°2.209 267.2 1.9 267 8.7
2005-01-14 08:19:15 51°20.618 3°2.206 267 1.9 262 8.7
2005-01-14 08:19:21 51°20.618 3°2.201 266.7 1.9 269 8.7
2005-01-14 08:19:25 51°20.618 3°2.198 266.3 2 268 8.7
2005-01-14 08:19:31 51°20.617 3°2.192 266.3 2 268 8.7
2005-01-14 08:19:35 51°20.617 3°2.188 267 2.3 272 8.6
2005-01-14 08:19:41 51°20.617 3°2.181 268.6 2.3 265 8.6
2005-01-14 08:19:45 51°20.617 3°2.177 270.6 2.5 269 8.7
2005-01-14 08:19:51 51°20.617 3°2.17 272.7 2.5 266 8.7
2005-01-14 08:19:55 51°20.617 3°2.165 275 2.7 269 8.7
2005-01-14 08:20:01 51°20.617 3°2.158 278 2.8 267 8.8
2005-01-14 08:20:05 51°20.617 3°2.152 281 2.8 273 8.8
2005-01-14 08:20:10 51°20.617 3°2.146 283.8 2.8 273 8.7
2005-01-14 08:20:15 51°20.618 3°2.14 287.1 2.9 276 8.7
2005-01-14 08:20:21 51°20.618 3°2.131 290.3 3 278 8.7
2005-01-14 08:20:25 51°20.619 3°2.126 293.7 3.2 268 8.6
2005-01-14 08:20:29 51°20.619 3°2.121 296.6 3.3 272 8.7
2005-01-14 08:20:35 51°20.62 3°2.112 299.6 3.1 282 8.7
2005-01-14 08:20:41 51°20.621 3°2.104 302.6 3.2 281 8.7
2005-01-14 08:20:45 51°20.622 3°2.099 305.6 3.1 288 8.7
2005-01-14 08:20:50 51°20.624 3°2.092 309 3.2 283 8.7
2005-01-14 08:20:56 51°20.625 3°2.084 310.6 3.2 293 8.7
2005-01-14 08:21:01 51°20.627 3°2.077 315.2 3.4 288 8.6
2005-01-14 08:21:06 51°20.629 3°2.07 318.8 3.4 294 8.7
2005-01-14 08:21:11 51°20.631 3°2.064 322.3 3.3 297 8.7
2005-01-14 08:21:15 51°20.633 3°2.059 326.4 3.3 300 8.7
2005-01-14 08:21:21 51°20.636 3°2.051 330 3.3 300 8.7
2005-01-14 08:21:25 51°20.639 3°2.047 334 3.4 304 8.8
2005-01-14 08:21:30 51°20.642 3°2.041 338 3.5 310 8.8
2005-01-14 08:21:35 51°20.646 3°2.036 343.1 3.5 318 8.8
2005-01-14 08:21:41 51°20.65 3°2.03 348 3.5 318 8.8
2005-01-14 08:21:46 51°20.654 3°2.026 353.4 3.5 318 8.8
2005-01-14 08:21:49 51°20.657 3°2.024 359 3.5 318 8.8
2005-01-14 08:21:55 51°20.662 3°2.021 4.8 3.4 334 8.8
2005-01-14 08:22:01 51°20.667 3°2.018 10.1 3.4 334 8.8
2005-01-14 08:22:05 51°20.67 3°2.017 15.8 3.1 350 8.8
2005-01-14 08:22:10 51°20.675 3°2.016 21.7 3.1 350 8.8
2005-01-14 08:22:15 51°20.679 3°2.016 27.2 3 358 8.8
2005-01-14 08:22:21 51°20.684 3°2.018 32.7 2.9 3 8.9
2005-01-14 08:22:25 51°20.686 3°2.02 38.4 2.8 10 9
2005-01-14 08:22:30 51°20.69 3°2.022 44.1 2.7 18 8.8
2005-01-14 08:22:35 51°20.693 3°2.025 50 2.5 28 8.9
2005-01-14 08:22:41 51°20.696 3°2.029 55.7 2.5 34 8.9
2005-01-14 08:22:45 51°20.697 3°2.032 60.5 2.3 51 8.9
2005-01-14 08:22:51 51°20.7 3°2.037 67.5 2.3 51 8.9
2005-01-14 08:22:55 51°20.701 3°2.041 73 2.4 69 8.9
2005-01-14 08:23:01 51°20.703 3°2.047 76.9 2.4 69 8.9
2005-01-14 08:23:05 51°20.704 3°2.052 79.3 2.7 77 9
2005-01-14 08:23:11 51°20.705 3°2.059 80.3 2.8 69 8.9
2005-01-14 08:23:15 51°20.706 3°2.064 81.2 3 75 8.8
2005-01-14 08:23:21 51°20.708 3°2.072 81.2 3.1 72 8.9
2005-01-14 08:23:25 51°20.709 3°2.077 80.6 3.2 76 8.9
2005-01-14 08:23:31 51°20.711 3°2.086 79.3 3.3 63 8.8
2005-01-14 08:23:35 51°20.713 3°2.091 79 3.4 76 8.8
2005-01-14 08:23:41 51°20.715 3°2.1 77.6 3.5 64 8.9
2005-01-14 08:23:45 51°20.717 3°2.106 76.4 3.5 71 8.9
2005-01-14 08:23:50 51°20.719 3°2.113 75.5 3.6 62 9
2005-01-14 08:23:55 51°20.721 3°2.12 73.5 3.6 62 8.9
2005-01-14 08:24:01 51°20.725 3°2.129 72.6 3.7 64 8.9
2005-01-14 08:24:05 51°20.727 3°2.135 70.4 3.8 57 8.8
2005-01-14 08:24:11 51°20.73 3°2.143 69.7 3.8 57 8.9
2005-01-14 08:24:15 51°20.733 3°2.149 68.4 3.9 50 8.9
2005-01-14 08:24:21 51°20.737 3°2.158 67.9 3.8 58 8.9
2005-01-14 08:24:25 51°20.739 3°2.164 67.3 4 53 9
2005-01-14 08:24:30 51°20.743 3°2.17 66.9 3.9 61 9.1
2005-01-14 08:24:35 51°20.745 3°2.178 67.9 4 55 9
2005-01-14 08:24:41 51°20.749 3°2.186 67.5 3.8 58 9
2005-01-14 08:24:45 51°20.751 3°2.192 68.2 3.7 60 8.8
2005-01-14 08:24:50 51°20.754 3°2.198 68.8 3.7 66 8.9
2005-01-14 08:24:55 51°20.756 3°2.205 68.9 3.7 66 8.8
2005-01-14 08:25:01 51°20.76 3°2.213 69.8 3.5 62 8.8
2005-01-14 08:25:05 51°20.761 3°2.219 71.1 3.5 61 9
2005-01-14 08:25:09 51°20.763 3°2.223 72.3 3.4 61 9
2005-01-14 08:25:15 51°20.766 3°2.232 73.8 3.4 68 9.1
2005-01-14 08:25:21 51°20.768 3°2.239 74.8 3.4 61 9.1
2005-01-14 08:25:25 51°20.769 3°2.245 76.9 3.4 61 9
2005-01-14 08:25:30 51°20.771 3°2.252 78.4 3.2 73 9
2005-01-14 08:25:35 51°20.772 3°2.258 79.2 3.2 74 8.9
2005-01-14 08:25:41 51°20.774 3°2.266 81.3 3.1 74 9
2005-01-14 08:25:46 51°20.775 3°2.273 81.6 3.1 74 8.9
2005-01-14 08:25:50 51°20.776 3°2.278 82.1 3.1 74 9
2005-01-14 08:25:55 51°20.776 3°2.285 82.6 3.1 74 9
2005-01-14 08:26:01 51°20.778 3°2.293 83.1 3 83 8.9
2005-01-14 08:26:05 51°20.778 3°2.298 82.7 3 79 9
2005-01-14 08:26:09 51°20.779 3°2.304 83.2 3 78 9
2005-01-14 08:26:15 51°20.781 3°2.311 83.1 3 73 9
2005-01-14 08:26:21 51°20.781 3°2.319 82.8 3 82 8.8
2005-01-14 08:26:25 51°20.783 3°2.324 82.7 3 74 8.9
2005-01-14 08:26:30 51°20.784 3°2.33 82.5 3 81 9
2005-01-14 08:26:35 51°20.784 3°2.337 82.1 3 80 9
2005-01-14 08:26:41 51°20.786 3°2.345 81.7 2.9 74 8.8
2005-01-14 08:26:45 51°20.787 3°2.349 81.9 3 70 8.9
2005-01-14 08:26:51 51°20.788 3°2.357 81.3 3 81 9
2005-01-14 08:26:55 51°20.79 3°2.362 81.4 3 68 8.9
2005-01-14 08:27:01 51°20.791 3°2.37 81.2 3 83 9
2005-01-14 08:27:05 51°20.792 3°2.375 80.7 2.9 72 8.9
2005-01-14 08:27:09 51°20.793 3°2.38 80.7 2.9 76 9
2005-01-14 08:27:15 51°20.794 3°2.387 80.4 2.9 76 9
2005-01-14 08:27:21 51°20.796 3°2.395 80.4 2.9 79 9
2005-01-14 08:27:25 51°20.797 3°2.4 80.4 3 72 9.1
2005-01-14 08:27:30 51°20.798 3°2.406 80.2 3 77 9.1
2005-01-14 08:27:36 51°20.799 3°2.413 80.2 2.9 69 9
2005-01-14 08:27:41 51°20.8 3°2.42 80.5 3 73 9.1
2005-01-14 08:27:45 51°20.801 3°2.425 80.2 3 69 9
2005-01-14 08:27:51 51°20.803 3°2.432 80.5 3 69 9
2005-01-14 08:27:55 51°20.803 3°2.437 79.9 3 66 9
2005-01-14 08:28:01 51°20.805 3°2.444 79.7 2.9 71 9
2005-01-14 08:28:06 51°20.807 3°2.45 79.8 2.9 74 9
2005-01-14 08:28:11 51°20.808 3°2.456 79.1 2.9 70 9
2005-01-14 08:28:15 51°20.809 3°2.461 79.4 2.9 68 8.8
2005-01-14 08:28:21 51°20.811 3°2.468 79.1 2.9 76 8.9
2005-01-14 08:28:26 51°20.812 3°2.474 78.9 2.9 73 8.9
2005-01-14 08:28:31 51°20.814 3°2.481 79.1 2.9 69 9
2005-01-14 08:28:36 51°20.815 3°2.486 78.6 2.9 71 9
2005-01-14 08:28:41 51°20.817 3°2.492 78.8 2.9 68 9
2005-01-14 08:28:46 51°20.818 3°2.498 78.9 2.9 74 9
2005-01-14 08:28:50 51°20.819 3°2.503 78.5 2.9 68 8.9
2005-01-14 08:28:55 51°20.821 3°2.509 79.1 2.9 68 9.1
2005-01-14 08:29:01 51°20.822 3°2.516 79.1 2.8 64 9
2005-01-14 08:29:05 51°20.824 3°2.52 79 2.9 71 8.9
2005-01-14 08:29:11 51°20.825 3°2.528 79.1 2.9 67 9
2005-01-14 08:29:15 51°20.826 3°2.533 79.4 2.9 69 9
2005-01-14 08:29:21 51°20.827 3°2.54 79.2 2.8 71 9
2005-01-14 08:29:26 51°20.829 3°2.546 79.6 2.9 71 9.1
2005-01-14 08:29:30 51°20.83 3°2.551 78.6 2.8 68 8.9
2005-01-14 08:29:35 51°20.831 3°2.557 79.8 2.9 78 9
2005-01-14 08:29:41 51°20.832 3°2.564 79.2 2.8 74 9
2005-01-14 08:29:45 51°20.833 3°2.569 79.6 2.9 68 9
2005-01-14 08:29:50 51°20.834 3°2.575 79.4 3 66 9
2005-01-14 08:29:55 51°20.836 3°2.581 79.5 2.9 67 9
2005-01-14 08:30:01 51°20.837 3°2.589 79.3 2.9 67 9
2005-01-14 08:30:05 51°20.838 3°2.593 79.6 2.9 70 8.9
2005-01-14 08:30:09 51°20.84 3°2.598 79.1 2.9 71 8.9
2005-01-14 08:30:15 51°20.841 3°2.605 79.2 2.9 72 8.9
2005-01-14 08:30:21 51°20.843 3°2.613 78.9 2.8 68 9
2005-01-14 08:30:26 51°20.844 3°2.619 78.9 2.8 68 9
2005-01-14 08:30:30 51°20.845 3°2.623 78.9 2.9 71 9
2005-01-14 08:30:35 51°20.846 3°2.629 78.3 2.8 68 9
2005-01-14 08:30:41 51°20.848 3°2.637 79.1 2.8 71 9
2005-01-14 08:30:45 51°20.849 3°2.641 78.7 2.8 75 9
2005-01-14 08:30:51 51°20.851 3°2.648 78.8 2.8 71 9
2005-01-14 08:30:55 51°20.852 3°2.653 79.1 2.9 68 8.9
2005-01-14 08:31:01 51°20.854 3°2.66 78.8 2.8 72 9
2005-01-14 08:31:06 51°20.855 3°2.666 79.3 2.8 71 9
2005-01-14 08:31:10 51°20.856 3°2.671 78.7 2.8 72 9
2005-01-14 08:31:15 51°20.857 3°2.677 79.4 2.8 69 9
2005-01-14 08:31:21 51°20.859 3°2.684 78.7 2.8 72 9
2005-01-14 08:31:25 51°20.86 3°2.688 79 2.8 70 9
2005-01-14 08:31:31 51°20.862 3°2.695 79.1 2.8 70 9
2005-01-14 08:31:35 51°20.862 3°2.7 78.7 2.8 71 8.9
2005-01-14 08:31:41 51°20.864 3°2.707 79 2.8 70 9
2005-01-14 08:31:45 51°20.865 3°2.712 78.8 2.8 70 9.1
2005-01-14 08:31:50 51°20.867 3°2.718 78.7 2.8 70 9
2005-01-14 08:31:55 51°20.868 3°2.724 78.8 2.8 69 9
2005-01-14 08:32:01 51°20.87 3°2.731 78.5 2.8 70 9
2005-01-14 08:32:05 51°20.871 3°2.735 78.6 2.9 67 9
2005-01-14 08:32:11 51°20.873 3°2.742 78.3 2.9 67 9
2005-01-14 08:32:15 51°20.874 3°2.747 78.4 2.9 67 8.9
2005-01-14 08:32:21 51°20.876 3°2.754 78.3 2.8 73 9
2005-01-14 08:32:25 51°20.877 3°2.759 78.2 2.8 69 9
2005-01-14 08:32:31 51°20.878 3°2.766 78.3 2.8 69 9
2005-01-14 08:32:36 51°20.88 3°2.772 78.4 2.9 69 9
2005-01-14 08:32:41 51°20.882 3°2.778 78.3 2.8 67 9
2005-01-14 08:32:45 51°20.883 3°2.782 78.6 2.9 68 8.9